Terminal Aerodrome Forecast
Issued by NWS Duluth, MN

Home | Current Version | Previous Version | Text Only | Print | Product List | Glossary On
Versions: 1 2 3 4 5 6 7 8 9 10 11 12 13 14 15 16 17 18 19
000
FTUS43 KDLH 030500
TAFINL
TAF
KINL 030524Z 0306/0406 12005KT P6SM VCTS SCT025 OVC040CB
      TEMPO 0306/0310 3SM -TSRA BKN024 OVC035CB
     FM031100 06005KT 4SM BR BKN012 OVC024
     FM031800 06010KT P6SM VCTS BKN015 OVC040CB
     FM040100 VRB05KT 4SM BR VCSH SCT020 BKN040=

USA.gov is the U.S. government's official web portal to all federal, state and local government web resources and services.